sensor_id;sensor_type;location;lat;lon;timestamp;pressure;altitude;pressure_sealevel;temperature;humidity
42297;BME280;72430;47.456;19.016;2023-11-21T00:02:22;99895.91;;;5.58;90.62
42297;BME280;72430;47.456;19.016;2023-11-21T00:05:24;99886.47;;;5.65;90.71
42297;BME280;72430;47.456;19.016;2023-11-21T00:08:26;99885.25;;;5.69;90.76
42297;BME280;72430;47.456;19.016;2023-11-21T00:11:29;99887.31;;;5.66;90.36
42297;BME280;72430;47.456;19.016;2023-11-21T00:14:30;99889.72;;;5.57;91.46
42297;BME280;72430;47.456;19.016;2023-11-21T00:17:32;99898.09;;;5.53;90.43
42297;BME280;72430;47.456;19.016;2023-11-21T00:20:34;99881.97;;;5.54;90.61
42297;BME280;72430;47.456;19.016;2023-11-21T00:23:36;99889.16;;;5.29;89.89
42297;BME280;72430;47.456;19.016;2023-11-21T00:26:38;99896.09;;;5.07;91.86
42297;BME280;72430;47.456;19.016;2023-11-21T00:29:40;99908.56;;;5.31;90.22
42297;BME280;72430;47.456;19.016;2023-11-21T00:32:42;99916.94;;;5.27;90.74
42297;BME280;72430;47.456;19.016;2023-11-21T00:35:44;99919.31;;;5.18;89.84
42297;BME280;72430;47.456;19.016;2023-11-21T00:38:46;99934.28;;;5.08;90.21
42297;BME280;72430;47.456;19.016;2023-11-21T00:41:50;99926.16;;;4.85;92.07
42297;BME280;72430;47.456;19.016;2023-11-21T00:44:52;99928.31;;;4.80;91.83
42297;BME280;72430;47.456;19.016;2023-11-21T00:47:54;99926.19;;;4.72;92.20
42297;BME280;72430;47.456;19.016;2023-11-21T00:50:56;99928.41;;;4.78;92.07
42297;BME280;72430;47.456;19.016;2023-11-21T00:53:58;99927.09;;;4.84;91.76
42297;BME280;72430;47.456;19.016;2023-11-21T00:56:59;99931.44;;;4.74;91.53
42297;BME280;72430;47.456;19.016;2023-11-21T01:00:01;99933.31;;;4.84;91.38
42297;BME280;72430;47.456;19.016;2023-11-21T01:03:08;99925.66;;;5.04;91.13
42297;BME280;72430;47.456;19.016;2023-11-21T01:06:11;99915.22;;;4.64;91.86
42297;BME280;72430;47.456;19.016;2023-11-21T01:09:16;99914.81;;;4.70;92.10
42297;BME280;72430;47.456;19.016;2023-11-21T01:12:20;99911.66;;;4.39;92.71
42297;BME280;72430;47.456;19.016;2023-11-21T01:15:22;99897.88;;;4.45;92.09
42297;BME280;72430;47.456;19.016;2023-11-21T01:18:23;99901.72;;;4.54;91.89
42297;BME280;72430;47.456;19.016;2023-11-21T01:21:27;99887.00;;;4.61;91.29
42297;BME280;72430;47.456;19.016;2023-11-21T01:24:29;99895.09;;;4.60;92.32
42297;BME280;72430;47.456;19.016;2023-11-21T01:27:31;99898.91;;;4.68;91.71
42297;BME280;72430;47.456;19.016;2023-11-21T01:30:33;99901.06;;;4.63;91.53
42297;BME280;72430;47.456;19.016;2023-11-21T01:33:35;99897.84;;;4.71;89.57
42297;BME280;72430;47.456;19.016;2023-11-21T01:36:37;99893.06;;;4.63;90.92
42297;BME280;72430;47.456;19.016;2023-11-21T01:39:38;99886.75;;;4.64;90.27
42297;BME280;72430;47.456;19.016;2023-11-21T01:42:41;99882.66;;;4.72;89.52
42297;BME280;72430;47.456;19.016;2023-11-21T01:45:45;99885.34;;;4.72;88.93
42297;BME280;72430;47.456;19.016;2023-11-21T01:48:48;99888.00;;;4.72;89.73
42297;BME280;72430;47.456;19.016;2023-11-21T01:51:51;99882.66;;;4.72;90.31
42297;BME280;72430;47.456;19.016;2023-11-21T01:54:53;99882.56;;;4.73;91.25
42297;BME280;72430;47.456;19.016;2023-11-21T01:57:56;99883.94;;;4.79;89.57
42297;BME280;72430;47.456;19.016;2023-11-21T02:00:59;99873.66;;;4.86;89.81
42297;BME280;72430;47.456;19.016;2023-11-21T02:04:01;99868.88;;;4.78;89.96
42297;BME280;72430;47.456;19.016;2023-11-21T02:07:04;99856.75;;;4.74;91.40
42297;BME280;72430;47.456;19.016;2023-11-21T02:10:09;99860.03;;;4.53;92.46
42297;BME280;72430;47.456;19.016;2023-11-21T02:13:11;99859.59;;;4.46;92.03
42297;BME280;72430;47.456;19.016;2023-11-21T02:16:13;99856.31;;;4.42;92.27
42297;BME280;72430;47.456;19.016;2023-11-21T02:19:18;99854.03;;;4.62;90.91
42297;BME280;72430;47.456;19.016;2023-11-21T02:22:32;99857.28;;;4.79;91.62
42297;BME280;72430;47.456;19.016;2023-11-21T02:25:38;99856.16;;;4.70;91.11
42297;BME280;72430;47.456;19.016;2023-11-21T02:28:40;99849.97;;;4.56;91.21
42297;BME280;72430;47.456;19.016;2023-11-21T02:31:43;99852.03;;;4.53;90.84
42297;BME280;72430;47.456;19.016;2023-11-21T02:34:50;99853.97;;;4.51;92.22
42297;BME280;72430;47.456;19.016;2023-11-21T02:37:52;99842.00;;;4.56;90.26
42297;BME280;72430;47.456;19.016;2023-11-21T02:40:55;99836.66;;;4.56;90.58
42297;BME280;72430;47.456;19.016;2023-11-21T02:43:57;99842.31;;;4.52;91.22
42297;BME280;72430;47.456;19.016;2023-11-21T02:46:58;99837.75;;;4.78;89.81
42297;BME280;72430;47.456;19.016;2023-11-21T02:50:01;99839.03;;;4.73;90.87
42297;BME280;72430;47.456;19.016;2023-11-21T02:53:03;99843.09;;;4.78;90.82
42297;BME280;72430;47.456;19.016;2023-11-21T02:56:07;99842.16;;;4.66;90.82
42297;BME280;72430;47.456;19.016;2023-11-21T02:59:09;99830.72;;;4.77;92.29
42297;BME280;72430;47.456;19.016;2023-11-21T03:02:11;99832.41;;;4.54;92.55
42297;BME280;72430;47.456;19.016;2023-11-21T03:05:14;99828.75;;;4.55;91.96
42297;BME280;72430;47.456;19.016;2023-11-21T03:08:15;99830.41;;;4.45;92.63
42297;BME280;72430;47.456;19.016;2023-11-21T03:11:17;99818.41;;;4.63;91.80
42297;BME280;72430;47.456;19.016;2023-11-21T03:14:19;99815.44;;;4.55;91.70
42297;BME280;72430;47.456;19.016;2023-11-21T03:17:21;99811.63;;;4.46;92.27
42297;BME280;72430;47.456;19.016;2023-11-21T03:20:23;99815.94;;;4.36;92.61
42297;BME280;72430;47.456;19.016;2023-11-21T03:23:25;99806.09;;;4.49;92.00
42297;BME280;72430;47.456;19.016;2023-11-21T03:26:27;99815.41;;;4.43;92.86
42297;BME280;72430;47.456;19.016;2023-11-21T03:29:28;99805.22;;;4.49;91.56
42297;BME280;72430;47.456;19.016;2023-11-21T03:32:30;99795.47;;;4.36;92.83
42297;BME280;72430;47.456;19.016;2023-11-21T03:35:34;99794.53;;;4.37;92.96
42297;BME280;72430;47.456;19.016;2023-11-21T03:38:36;99781.31;;;4.36;93.48
42297;BME280;72430;47.456;19.016;2023-11-21T03:41:39;99783.56;;;4.29;92.83
42297;BME280;72430;47.456;19.016;2023-11-21T03:44:41;99776.88;;;4.23;93.24
42297;BME280;72430;47.456;19.016;2023-11-21T03:47:43;99784.97;;;4.22;93.34
42297;BME280;72430;47.456;19.016;2023-11-21T03:50:45;99792.09;;;4.21;92.88
42297;BME280;72430;47.456;19.016;2023-11-21T03:53:49;99800.28;;;4.31;91.15
42297;BME280;72430;47.456;19.016;2023-11-21T03:56:51;99803.63;;;4.46;90.82
42297;BME280;72430;47.456;19.016;2023-11-21T03:59:53;99809.47;;;4.51;90.90
42297;BME280;72430;47.456;19.016;2023-11-21T04:02:55;99800.59;;;4.39;92.64
42297;BME280;72430;47.456;19.016;2023-11-21T04:05:57;99798.09;;;4.49;93.04
42297;BME280;72430;47.456;19.016;2023-11-21T04:09:02;99802.97;;;4.55;92.19
42297;BME280;72430;47.456;19.016;2023-11-21T04:12:06;99813.47;;;4.70;91.48
42297;BME280;72430;47.456;19.016;2023-11-21T04:15:08;99815.84;;;4.62;92.26
42297;BME280;72430;47.456;19.016;2023-11-21T04:18:10;99820.66;;;4.56;93.37
42297;BME280;72430;47.456;19.016;2023-11-21T04:21:12;99825.44;;;4.64;93.18
42297;BME280;72430;47.456;19.016;2023-11-21T04:24:14;99823.03;;;4.73;92.97
42297;BME280;72430;47.456;19.016;2023-11-21T04:27:16;99825.66;;;4.86;92.28
42297;BME280;72430;47.456;19.016;2023-11-21T04:30:19;99823.84;;;4.86;92.83
42297;BME280;72430;47.456;19.016;2023-11-21T04:33:22;99818.72;;;4.83;94.95
42297;BME280;72430;47.456;19.016;2023-11-21T04:36:24;99828.38;;;4.97;93.25
42297;BME280;72430;47.456;19.016;2023-11-21T04:39:26;99823.66;;;5.01;92.69
42297;BME280;72430;47.456;19.016;2023-11-21T04:42:28;99814.63;;;4.79;94.14
42297;BME280;72430;47.456;19.016;2023-11-21T04:45:30;99833.31;;;4.90;93.79
42297;BME280;72430;47.456;19.016;2023-11-21T04:48:32;99839.09;;;5.08;92.94
42297;BME280;72430;47.456;19.016;2023-11-21T04:51:34;99853.63;;;5.04;92.00
42297;BME280;72430;47.456;19.016;2023-11-21T04:54:36;99852.16;;;5.00;92.58
42297;BME280;72430;47.456;19.016;2023-11-21T04:57:38;99855.75;;;5.23;92.36
42297;BME280;72430;47.456;19.016;2023-11-21T05:00:43;99861.09;;;5.23;92.96
42297;BME280;72430;47.456;19.016;2023-11-21T05:03:45;99869.25;;;5.33;92.51
42297;BME280;72430;47.456;19.016;2023-11-21T05:06:48;99859.81;;;5.41;91.60
42297;BME280;72430;47.456;19.016;2023-11-21T05:09:50;99870.16;;;5.45;92.16
42297;BME280;72430;47.456;19.016;2023-11-21T05:12:52;99868.47;;;5.44;91.90
42297;BME280;72430;47.456;19.016;2023-11-21T05:15:57;99862.66;;;5.50;92.54
42297;BME280;72430;47.456;19.016;2023-11-21T05:18:59;99860.38;;;5.69;92.19
42297;BME280;72430;47.456;19.016;2023-11-21T05:22:02;99848.09;;;5.66;91.52
42297;BME280;72430;47.456;19.016;2023-11-21T05:25:06;99841.44;;;5.72;92.29
42297;BME280;72430;47.456;19.016;2023-11-21T05:28:11;99834.41;;;5.71;91.84
42297;BME280;72430;47.456;19.016;2023-11-21T05:31:12;99842.53;;;5.69;92.11
42297;BME280;72430;47.456;19.016;2023-11-21T05:34:17;99851.34;;;5.58;93.24
42297;BME280;72430;47.456;19.016;2023-11-21T05:37:19;99851.84;;;5.63;92.49
42297;BME280;72430;47.456;19.016;2023-11-21T05:40:21;99857.59;;;5.82;91.73
42297;BME280;72430;47.456;19.016;2023-11-21T05:43:26;99841.81;;;5.90;90.76
42297;BME280;72430;47.456;19.016;2023-11-21T05:46:29;99839.38;;;5.75;91.73
42297;BME280;72430;47.456;19.016;2023-11-21T05:49:31;99851.63;;;5.67;91.50
42297;BME280;72430;47.456;19.016;2023-11-21T05:52:33;99847.56;;;5.49;92.84
42297;BME280;72430;47.456;19.016;2023-11-21T05:55:35;99850.78;;;5.77;91.13
42297;BME280;72430;47.456;19.016;2023-11-21T05:58:37;99854.31;;;5.78;91.66
42297;BME280;72430;47.456;19.016;2023-11-21T06:01:39;99862.69;;;5.73;91.11
42297;BME280;72430;47.456;19.016;2023-11-21T06:04:41;99870.09;;;5.81;91.99
42297;BME280;72430;47.456;19.016;2023-11-21T06:07:43;99874.59;;;5.81;91.60
42297;BME280;72430;47.456;19.016;2023-11-21T06:10:45;99880.16;;;5.77;91.63
42297;BME280;72430;47.456;19.016;2023-11-21T06:13:50;99878.97;;;5.82;93.06
42297;BME280;72430;47.456;19.016;2023-11-21T06:16:54;99896.44;;;5.74;91.77
42297;BME280;72430;47.456;19.016;2023-11-21T06:19:58;99892.56;;;5.78;91.45
42297;BME280;72430;47.456;19.016;2023-11-21T06:23:00;99900.56;;;5.78;92.77
42297;BME280;72430;47.456;19.016;2023-11-21T06:26:05;99906.66;;;5.81;91.65
42297;BME280;72430;47.456;19.016;2023-11-21T06:29:07;99926.47;;;5.89;91.25
42297;BME280;72430;47.456;19.016;2023-11-21T06:32:09;99925.72;;;5.87;91.82
42297;BME280;72430;47.456;19.016;2023-11-21T06:35:11;99934.88;;;5.60;92.34
42297;BME280;72430;47.456;19.016;2023-11-21T06:38:14;99937.31;;;5.28;94.60
42297;BME280;72430;47.456;19.016;2023-11-21T06:41:16;99941.72;;;5.64;94.39
42297;BME280;72430;47.456;19.016;2023-11-21T06:44:18;99944.50;;;5.63;95.01
42297;BME280;72430;47.456;19.016;2023-11-21T06:47:21;99937.84;;;5.80;94.64
42297;BME280;72430;47.456;19.016;2023-11-21T06:50:24;99943.22;;;5.91;93.92
42297;BME280;72430;47.456;19.016;2023-11-21T06:53:26;99943.84;;;5.95;93.43
42297;BME280;72430;47.456;19.016;2023-11-21T06:56:28;99947.47;;;5.94;94.46
42297;BME280;72430;47.456;19.016;2023-11-21T06:59:30;99940.59;;;5.56;96.52
42297;BME280;72430;47.456;19.016;2023-11-21T07:02:32;99949.13;;;5.36;99.73
42297;BME280;72430;47.456;19.016;2023-11-21T07:05:34;99950.75;;;5.50;98.66
42297;BME280;72430;47.456;19.016;2023-11-21T07:08:36;99954.38;;;5.49;99.58
42297;BME280;72430;47.456;19.016;2023-11-21T07:11:38;99953.66;;;5.83;99.08
42297;BME280;72430;47.456;19.016;2023-11-21T07:14:44;99951.25;;;5.91;98.41
42297;BME280;72430;47.456;19.016;2023-11-21T07:17:46;99944.28;;;6.25;96.12
42297;BME280;72430;47.456;19.016;2023-11-21T07:20:50;99940.66;;;6.49;94.81
42297;BME280;72430;47.456;19.016;2023-11-21T07:23:52;99947.44;;;6.53;94.15
42297;BME280;72430;47.456;19.016;2023-11-21T07:26:54;99948.66;;;6.71;93.76
42297;BME280;72430;47.456;19.016;2023-11-21T07:29:58;99951.06;;;6.75;93.50
42297;BME280;72430;47.456;19.016;2023-11-21T07:33:00;99943.63;;;6.90;93.15
42297;BME280;72430;47.456;19.016;2023-11-21T07:36:02;99952.16;;;6.95;93.20
42297;BME280;72430;47.456;19.016;2023-11-21T07:39:04;99952.25;;;7.05;92.89
42297;BME280;72430;47.456;19.016;2023-11-21T07:42:08;99958.94;;;7.10;93.19
42297;BME280;72430;47.456;19.016;2023-11-21T07:45:10;99954.38;;;7.22;91.93
42297;BME280;72430;47.456;19.016;2023-11-21T07:48:14;99958.91;;;7.22;92.25
42297;BME280;72430;47.456;19.016;2023-11-21T07:51:16;99946.59;;;7.31;91.86
42297;BME280;72430;47.456;19.016;2023-11-21T07:54:18;99953.13;;;7.38;91.69
42297;BME280;72430;47.456;19.016;2023-11-21T07:57:20;99961.94;;;7.50;90.65
42297;BME280;72430;47.456;19.016;2023-11-21T08:00:22;99951.38;;;7.48;91.33
42297;BME280;72430;47.456;19.016;2023-11-21T08:03:26;99951.00;;;7.53;91.32
42297;BME280;72430;47.456;19.016;2023-11-21T08:06:33;99954.38;;;7.55;91.25
42297;BME280;72430;47.456;19.016;2023-11-21T08:09:35;99949.38;;;7.62;91.11
42297;BME280;72430;47.456;19.016;2023-11-21T08:12:37;99950.56;;;7.69;89.71
42297;BME280;72430;47.456;19.016;2023-11-21T08:15:40;99953.00;;;7.72;90.11
42297;BME280;72430;47.456;19.016;2023-11-21T08:18:42;99952.84;;;7.74;89.19
42297;BME280;72430;47.456;19.016;2023-11-21T08:21:44;99948.69;;;7.81;90.16
42297;BME280;72430;47.456;19.016;2023-11-21T08:24:47;99943.03;;;7.84;89.49
42297;BME280;72430;47.456;19.016;2023-11-21T08:27:49;99941.53;;;7.91;89.40
42297;BME280;72430;47.456;19.016;2023-11-21T08:30:51;99936.78;;;7.95;89.59
42297;BME280;72430;47.456;19.016;2023-11-21T08:33:55;99934.53;;;8.00;89.90
42297;BME280;72430;47.456;19.016;2023-11-21T08:37:00;99941.66;;;8.11;90.05
42297;BME280;72430;47.456;19.016;2023-11-21T08:40:02;99929.50;;;8.07;90.16
42297;BME280;72430;47.456;19.016;2023-11-21T08:43:04;99926.88;;;8.17;89.79
42297;BME280;72430;47.456;19.016;2023-11-21T08:46:06;99933.50;;;8.13;89.27
42297;BME280;72430;47.456;19.016;2023-11-21T08:49:11;99928.72;;;8.16;90.97
42297;BME280;72430;47.456;19.016;2023-11-21T08:52:14;99935.25;;;8.24;91.74
42297;BME280;72430;47.456;19.016;2023-11-21T08:55:19;99935.69;;;8.29;89.05
42297;BME280;72430;47.456;19.016;2023-11-21T08:58:21;99936.00;;;8.36;88.85
42297;BME280;72430;47.456;19.016;2023-11-21T09:01:23;99945.34;;;8.41;87.94
42297;BME280;72430;47.456;19.016;2023-11-21T09:04:26;99941.69;;;8.42;87.49
42297;BME280;72430;47.456;19.016;2023-11-21T09:07:29;99942.38;;;8.44;87.49
42297;BME280;72430;47.456;19.016;2023-11-21T09:10:31;99940.16;;;8.50;86.62
42297;BME280;72430;47.456;19.016;2023-11-21T09:13:34;99936.25;;;8.54;87.02
42297;BME280;72430;47.456;19.016;2023-11-21T09:16:36;99924.41;;;8.56;86.62
42297;BME280;72430;47.456;19.016;2023-11-21T09:19:38;99915.22;;;8.59;86.65
42297;BME280;72430;47.456;19.016;2023-11-21T09:22:40;99919.63;;;8.70;86.57
42297;BME280;72430;47.456;19.016;2023-11-21T09:25:42;99915.69;;;8.74;86.74
42297;BME280;72430;47.456;19.016;2023-11-21T09:28:47;99913.16;;;8.72;86.59
42297;BME280;72430;47.456;19.016;2023-11-21T09:31:49;99907.53;;;8.85;85.85
42297;BME280;72430;47.456;19.016;2023-11-21T09:34:53;99910.50;;;8.82;85.35
42297;BME280;72430;47.456;19.016;2023-11-21T09:37:57;99905.13;;;8.82;85.15
42297;BME280;72430;47.456;19.016;2023-11-21T09:41:01;99900.50;;;8.94;85.42
42297;BME280;72430;47.456;19.016;2023-11-21T09:44:08;99895.25;;;9.03;83.96
42297;BME280;72430;47.456;19.016;2023-11-21T09:47:15;99892.31;;;9.06;83.88
42297;BME280;72430;47.456;19.016;2023-11-21T09:50:17;99891.03;;;9.10;83.34
42297;BME280;72430;47.456;19.016;2023-11-21T09:53:32;99881.88;;;9.22;82.87
42297;BME280;72430;47.456;19.016;2023-11-21T09:56:34;99877.47;;;9.21;82.33
42297;BME280;72430;47.456;19.016;2023-11-21T09:59:37;99881.44;;;9.17;82.30
42297;BME280;72430;47.456;19.016;2023-11-21T10:02:39;99877.06;;;9.26;81.65
42297;BME280;72430;47.456;19.016;2023-11-21T10:05:44;99871.69;;;9.26;81.82
42297;BME280;72430;47.456;19.016;2023-11-21T10:08:49;99872.38;;;9.28;82.01
42297;BME280;72430;47.456;19.016;2023-11-21T10:11:58;99870.69;;;9.27;83.13
42297;BME280;72430;47.456;19.016;2023-11-21T10:15:03;99873.38;;;9.37;81.58
42297;BME280;72430;47.456;19.016;2023-11-21T10:18:08;99874.34;;;9.46;82.26
42297;BME280;72430;47.456;19.016;2023-11-21T10:21:11;99869.84;;;9.46;80.36
42297;BME280;72430;47.456;19.016;2023-11-21T10:24:13;99872.94;;;9.42;80.73
42297;BME280;72430;47.456;19.016;2023-11-21T10:27:14;99868.00;;;9.47;81.39
42297;BME280;72430;47.456;19.016;2023-11-21T10:30:16;99868.53;;;9.50;80.16
42297;BME280;72430;47.456;19.016;2023-11-21T10:33:27;99868.41;;;9.52;81.15
42297;BME280;72430;47.456;19.016;2023-11-21T10:36:30;99870.41;;;9.50;80.32
42297;BME280;72430;47.456;19.016;2023-11-21T10:39:32;99867.59;;;9.51;79.21
42297;BME280;72430;47.456;19.016;2023-11-21T10:42:34;99867.56;;;9.61;80.47
42297;BME280;72430;47.456;19.016;2023-11-21T10:45:40;99867.00;;;9.67;79.86
42297;BME280;72430;47.456;19.016;2023-11-21T10:48:42;99875.16;;;9.76;79.48
42297;BME280;72430;47.456;19.016;2023-11-21T10:51:44;99881.25;;;9.68;78.86
42297;BME280;72430;47.456;19.016;2023-11-21T10:54:46;99870.66;;;9.57;79.78
42297;BME280;72430;47.456;19.016;2023-11-21T10:57:52;99868.09;;;9.75;79.01
42297;BME280;72430;47.456;19.016;2023-11-21T11:00:55;99867.97;;;9.66;79.67
42297;BME280;72430;47.456;19.016;2023-11-21T11:04:01;99869.81;;;9.56;79.53
42297;BME280;72430;47.456;19.016;2023-11-21T11:07:10;99863.72;;;9.54;79.26
42297;BME280;72430;47.456;19.016;2023-11-21T11:10:14;99859.78;;;9.48;78.57
42297;BME280;72430;47.456;19.016;2023-11-21T11:13:16;99863.06;;;9.42;79.86
42297;BME280;72430;47.456;19.016;2023-11-21T11:16:18;99865.44;;;9.45;78.23
42297;BME280;72430;47.456;19.016;2023-11-21T11:19:21;99857.53;;;9.53;78.38
42297;BME280;72430;47.456;19.016;2023-11-21T11:29:15;99852.44;;;9.50;77.08
42297;BME280;72430;47.456;19.016;2023-11-21T11:39:31;99833.97;;;9.85;77.98
42297;BME280;72430;47.456;19.016;2023-11-21T11:42:37;99827.34;;;9.70;77.27
42297;BME280;72430;47.456;19.016;2023-11-21T11:45:38;99839.00;;;9.60;76.61
42297;BME280;72430;47.456;19.016;2023-11-21T11:48:44;99837.13;;;9.71;77.23
42297;BME280;72430;47.456;19.016;2023-11-21T11:51:47;99828.09;;;9.52;76.64
42297;BME280;72430;47.456;19.016;2023-11-21T11:54:49;99835.09;;;9.92;77.50
42297;BME280;72430;47.456;19.016;2023-11-21T11:57:54;99822.72;;;10.00;77.10
42297;BME280;72430;47.456;19.016;2023-11-21T12:01:06;99820.44;;;10.05;76.83
42297;BME280;72430;47.456;19.016;2023-11-21T12:08:00;99805.81;;;10.17;76.26
42297;BME280;72430;47.456;19.016;2023-11-21T12:11:01;99808.75;;;10.24;75.23
42297;BME280;72430;47.456;19.016;2023-11-21T12:14:04;99811.00;;;10.29;76.24
42297;BME280;72430;47.456;19.016;2023-11-21T12:17:07;99812.94;;;10.37;75.83
42297;BME280;72430;47.456;19.016;2023-11-21T12:20:10;99819.84;;;10.49;75.10
42297;BME280;72430;47.456;19.016;2023-11-21T12:23:16;99816.53;;;10.27;75.11
42297;BME280;72430;47.456;19.016;2023-11-21T12:26:18;99811.47;;;10.24;75.60
42297;BME280;72430;47.456;19.016;2023-11-21T12:29:20;99807.84;;;10.43;74.03
42297;BME280;72430;47.456;19.016;2023-11-21T12:32:22;99804.22;;;10.25;75.76
42297;BME280;72430;47.456;19.016;2023-11-21T12:35:26;99796.53;;;10.30;74.75
42297;BME280;72430;47.456;19.016;2023-11-21T12:38:34;99800.38;;;10.27;74.38
42297;BME280;72430;47.456;19.016;2023-11-21T12:41:39;99803.38;;;10.24;74.88
42297;BME280;72430;47.456;19.016;2023-11-21T12:44:41;99795.59;;;10.21;75.17
42297;BME280;72430;47.456;19.016;2023-11-21T12:47:51;99799.69;;;10.25;74.00
42297;BME280;72430;47.456;19.016;2023-11-21T12:50:53;99800.28;;;10.19;74.31
42297;BME280;72430;47.456;19.016;2023-11-21T12:53:57;99799.00;;;10.23;74.39
42297;BME280;72430;47.456;19.016;2023-11-21T12:57:00;99803.47;;;10.32;73.81
42297;BME280;72430;47.456;19.016;2023-11-21T13:00:04;99798.81;;;10.34;74.03
42297;BME280;72430;47.456;19.016;2023-11-21T13:03:17;99797.34;;;10.40;74.13
42297;BME280;72430;47.456;19.016;2023-11-21T13:06:25;99802.88;;;10.39;74.33
42297;BME280;72430;47.456;19.016;2023-11-21T13:09:27;99796.47;;;10.40;74.45
42297;BME280;72430;47.456;19.016;2023-11-21T13:12:30;99791.91;;;10.22;74.54
42297;BME280;72430;47.456;19.016;2023-11-21T13:15:39;99793.72;;;10.31;75.48
42297;BME280;72430;47.456;19.016;2023-11-21T13:18:42;99808.25;;;10.39;75.74
42297;BME280;72430;47.456;19.016;2023-11-21T13:21:44;99798.50;;;10.38;75.19
42297;BME280;72430;47.456;19.016;2023-11-21T13:24:46;99797.94;;;10.34;75.39
42297;BME280;72430;47.456;19.016;2023-11-21T13:27:51;99794.06;;;10.46;75.56
42297;BME280;72430;47.456;19.016;2023-11-21T13:30:53;99796.47;;;10.40;75.14
42297;BME280;72430;47.456;19.016;2023-11-21T13:33:55;99803.59;;;10.41;74.96
42297;BME280;72430;47.456;19.016;2023-11-21T13:36:58;99805.41;;;10.40;75.77
42297;BME280;72430;47.456;19.016;2023-11-21T13:40:02;99807.94;;;10.52;75.65
42297;BME280;72430;47.456;19.016;2023-11-21T13:43:19;99806.53;;;10.47;75.58
42297;BME280;72430;47.456;19.016;2023-11-21T13:46:22;99809.41;;;10.46;76.51
42297;BME280;72430;47.456;19.016;2023-11-21T13:49:25;99806.38;;;10.49;76.14
42297;BME280;72430;47.456;19.016;2023-11-21T13:52:28;99806.84;;;10.63;76.35
42297;BME280;72430;47.456;19.016;2023-11-21T13:55:33;99811.94;;;10.66;75.12
42297;BME280;72430;47.456;19.016;2023-11-21T13:58:35;99805.81;;;10.73;74.67
42297;BME280;72430;47.456;19.016;2023-11-21T14:01:54;99807.88;;;10.61;76.39
42297;BME280;72430;47.456;19.016;2023-11-21T14:05:18;99815.66;;;10.65;76.11
42297;BME280;72430;47.456;19.016;2023-11-21T14:08:30;99815.00;;;10.53;76.11
42297;BME280;72430;47.456;19.016;2023-11-21T14:11:33;99817.84;;;10.51;75.58
42297;BME280;72430;47.456;19.016;2023-11-21T14:14:46;99827.38;;;10.45;77.46
42297;BME280;72430;47.456;19.016;2023-11-21T14:17:50;99825.00;;;10.60;76.27
42297;BME280;72430;47.456;19.016;2023-11-21T14:20:52;99829.59;;;10.50;76.98
42297;BME280;72430;47.456;19.016;2023-11-21T14:23:53;99836.00;;;10.49;76.94
42297;BME280;72430;47.456;19.016;2023-11-21T14:26:58;99834.75;;;10.43;76.13
42297;BME280;72430;47.456;19.016;2023-11-21T14:30:01;99832.38;;;10.30;78.60
42297;BME280;72430;47.456;19.016;2023-11-21T14:33:03;99833.13;;;10.23;78.99
42297;BME280;72430;47.456;19.016;2023-11-21T14:36:06;99830.97;;;10.26;79.07
42297;BME280;72430;47.456;19.016;2023-11-21T14:39:11;99839.63;;;10.20;77.85
42297;BME280;72430;47.456;19.016;2023-11-21T14:42:24;99846.09;;;9.99;79.74
42297;BME280;72430;47.456;19.016;2023-11-21T14:45:32;99837.22;;;9.89;80.75
42297;BME280;72430;47.456;19.016;2023-11-21T14:48:34;99835.81;;;9.85;79.65
42297;BME280;72430;47.456;19.016;2023-11-21T14:51:44;99834.00;;;9.75;80.87
42297;BME280;72430;47.456;19.016;2023-11-21T14:55:05;99851.88;;;9.47;81.54
42297;BME280;72430;47.456;19.016;2023-11-21T14:58:27;99855.41;;;9.47;81.14
42297;BME280;72430;47.456;19.016;2023-11-21T15:01:31;99853.72;;;9.46;81.06
42297;BME280;72430;47.456;19.016;2023-11-21T15:04:51;99855.69;;;9.34;81.62
42297;BME280;72430;47.456;19.016;2023-11-21T15:07:57;99853.31;;;9.41;81.34
42297;BME280;72430;47.456;19.016;2023-11-21T15:11:12;99849.19;;;9.37;81.32
42297;BME280;72430;47.456;19.016;2023-11-21T15:14:17;99856.13;;;9.30;80.97
42297;BME280;72430;47.456;19.016;2023-11-21T15:17:25;99856.41;;;9.36;80.11
42297;BME280;72430;47.456;19.016;2023-11-21T15:20:33;99849.19;;;9.37;78.72
42297;BME280;72430;47.456;19.016;2023-11-21T15:23:35;99851.19;;;9.15;79.64
42297;BME280;72430;47.456;19.016;2023-11-21T15:26:36;99857.13;;;9.09;78.78
42297;BME280;72430;47.456;19.016;2023-11-21T15:29:39;99853.03;;;9.05;79.63
42297;BME280;72430;47.456;19.016;2023-11-21T15:32:41;99849.47;;;8.94;80.97
42297;BME280;72430;47.456;19.016;2023-11-21T15:35:43;99848.88;;;8.71;80.48
42297;BME280;72430;47.456;19.016;2023-11-21T15:38:46;99854.09;;;8.63;81.77
42297;BME280;72430;47.456;19.016;2023-11-21T15:41:47;99860.59;;;8.60;82.00
42297;BME280;72430;47.456;19.016;2023-11-21T15:44:49;99852.31;;;8.42;82.50
42297;BME280;72430;47.456;19.016;2023-11-21T15:47:52;99846.22;;;8.40;81.59
42297;BME280;72430;47.456;19.016;2023-11-21T15:50:55;99847.22;;;8.39;82.01
42297;BME280;72430;47.456;19.016;2023-11-21T15:53:59;99851.41;;;8.22;82.88
42297;BME280;72430;47.456;19.016;2023-11-21T15:57:01;99860.22;;;8.02;83.53
42297;BME280;72430;47.456;19.016;2023-11-21T16:00:03;99851.22;;;7.82;83.30
42297;BME280;72430;47.456;19.016;2023-11-21T16:03:12;99851.75;;;7.76;84.73
42297;BME280;72430;47.456;19.016;2023-11-21T16:06:15;99843.59;;;7.77;83.37
42297;BME280;72430;47.456;19.016;2023-11-21T16:09:17;99865.34;;;7.42;85.12
42297;BME280;72430;47.456;19.016;2023-11-21T16:12:34;99866.09;;;7.32;84.82
42297;BME280;72430;47.456;19.016;2023-11-21T16:15:36;99862.31;;;7.35;84.43
42297;BME280;72430;47.456;19.016;2023-11-21T16:18:37;99870.56;;;7.22;85.23
42297;BME280;72430;47.456;19.016;2023-11-21T16:21:39;99867.06;;;7.10;85.48
42297;BME280;72430;47.456;19.016;2023-11-21T16:24:41;99863.09;;;7.04;85.42
42297;BME280;72430;47.456;19.016;2023-11-21T16:27:43;99863.47;;;7.21;84.54